sensor_id;sensor_type;location;lat;lon;timestamp;P1;durP1;ratioP1;P2;durP2;ratioP2
56242;SDS011;42155;53.096;23.226;2022-10-16T00:00:37;29.17;;;15.73;;
56242;SDS011;42155;53.096;23.226;2022-10-16T00:02:38;27.02;;;15.48;;
56242;SDS011;42155;53.096;23.226;2022-10-16T00:04:39;28.30;;;16.27;;
56242;SDS011;42155;53.096;23.226;2022-10-16T00:06:39;24.70;;;14.68;;
56242;SDS011;42155;53.096;23.226;2022-10-16T00:08:40;25.98;;;15.10;;
56242;SDS011;42155;53.096;23.226;2022-10-16T00:10:40;27.02;;;14.75;;
56242;SDS011;42155;53.096;23.226;2022-10-16T00:12:41;29.33;;;15.45;;
56242;SDS011;42155;53.096;23.226;2022-10-16T00:14:41;26.17;;;15.32;;
56242;SDS011;42155;53.096;23.226;2022-10-16T00:16:41;26.13;;;15.45;;
56242;SDS011;42155;53.096;23.226;2022-10-16T00:18:42;28.27;;;14.65;;
56242;SDS011;42155;53.096;23.226;2022-10-16T00:20:43;26.50;;;14.90;;
56242;SDS011;42155;53.096;23.226;2022-10-16T00:22:43;26.75;;;15.95;;
56242;SDS011;42155;53.096;23.226;2022-10-16T00:24:44;28.88;;;15.15;;
56242;SDS011;42155;53.096;23.226;2022-10-16T00:26:44;27.70;;;14.93;;
56242;SDS011;42155;53.096;23.226;2022-10-16T00:28:45;27.48;;;14.77;;
56242;SDS011;42155;53.096;23.226;2022-10-16T00:30:46;24.23;;;14.30;;
56242;SDS011;42155;53.096;23.226;2022-10-16T00:32:47;32.58;;;15.80;;
56242;SDS011;42155;53.096;23.226;2022-10-16T00:34:47;25.25;;;14.98;;
56242;SDS011;42155;53.096;23.226;2022-10-16T00:36:47;23.65;;;14.18;;
56242;SDS011;42155;53.096;23.226;2022-10-16T00:38:49;29.27;;;15.70;;
56242;SDS011;42155;53.096;23.226;2022-10-16T00:40:53;26.88;;;14.88;;
56242;SDS011;42155;53.096;23.226;2022-10-16T00:42:54;24.10;;;14.95;;
56242;SDS011;42155;53.096;23.226;2022-10-16T00:44:56;24.88;;;14.73;;
56242;SDS011;42155;53.096;23.226;2022-10-16T00:46:57;24.05;;;14.25;;
56242;SDS011;42155;53.096;23.226;2022-10-16T00:49:02;24.92;;;14.52;;
56242;SDS011;42155;53.096;23.226;2022-10-16T00:51:08;25.95;;;14.77;;
56242;SDS011;42155;53.096;23.226;2022-10-16T00:53:08;26.20;;;14.38;;
56242;SDS011;42155;53.096;23.226;2022-10-16T00:55:10;26.63;;;15.18;;
56242;SDS011;42155;53.096;23.226;2022-10-16T00:57:11;27.73;;;14.35;;
56242;SDS011;42155;53.096;23.226;2022-10-16T00:59:14;25.17;;;15.00;;
56242;SDS011;42155;53.096;23.226;2022-10-16T01:01:35;27.45;;;14.57;;
56242;SDS011;42155;53.096;23.226;2022-10-16T01:03:36;26.25;;;14.65;;
56242;SDS011;42155;53.096;23.226;2022-10-16T01:05:42;24.73;;;14.70;;
56242;SDS011;42155;53.096;23.226;2022-10-16T01:10:48;26.77;;;14.98;;
56242;SDS011;42155;53.096;23.226;2022-10-16T01:13:01;27.77;;;15.05;;
56242;SDS011;42155;53.096;23.226;2022-10-16T01:15:11;25.40;;;15.15;;
56242;SDS011;42155;53.096;23.226;2022-10-16T01:17:19;30.13;;;16.63;;
56242;SDS011;42155;53.096;23.226;2022-10-16T01:21:35;28.20;;;15.20;;
56242;SDS011;42155;53.096;23.226;2022-10-16T01:24:00;25.10;;;14.65;;
56242;SDS011;42155;53.096;23.226;2022-10-16T01:30:46;28.63;;;16.35;;
56242;SDS011;42155;53.096;23.226;2022-10-16T01:32:51;27.35;;;15.25;;
56242;SDS011;42155;53.096;23.226;2022-10-16T01:35:01;27.98;;;15.23;;
56242;SDS011;42155;53.096;23.226;2022-10-16T01:37:08;26.98;;;14.93;;
56242;SDS011;42155;53.096;23.226;2022-10-16T01:39:11;27.58;;;15.70;;
56242;SDS011;42155;53.096;23.226;2022-10-16T01:43:22;28.27;;;15.27;;
56242;SDS011;42155;53.096;23.226;2022-10-16T01:45:31;29.02;;;14.65;;
56242;SDS011;42155;53.096;23.226;2022-10-16T01:47:33;26.92;;;15.45;;
56242;SDS011;42155;53.096;23.226;2022-10-16T01:49:36;33.60;;;15.50;;
56242;SDS011;42155;53.096;23.226;2022-10-16T01:51:38;25.25;;;14.38;;
56242;SDS011;42155;53.096;23.226;2022-10-16T01:53:39;25.20;;;14.55;;
56242;SDS011;42155;53.096;23.226;2022-10-16T01:55:44;27.17;;;14.45;;
56242;SDS011;42155;53.096;23.226;2022-10-16T01:57:47;28.65;;;15.55;;
56242;SDS011;42155;53.096;23.226;2022-10-16T01:59:52;28.13;;;15.20;;
56242;SDS011;42155;53.096;23.226;2022-10-16T02:01:56;25.58;;;15.02;;
56242;SDS011;42155;53.096;23.226;2022-10-16T02:04:01;27.58;;;15.02;;
56242;SDS011;42155;53.096;23.226;2022-10-16T02:06:07;25.33;;;14.90;;
56242;SDS011;42155;53.096;23.226;2022-10-16T02:08:08;31.13;;;15.13;;
56242;SDS011;42155;53.096;23.226;2022-10-16T02:10:09;26.42;;;14.20;;
56242;SDS011;42155;53.096;23.226;2022-10-16T02:12:12;25.02;;;14.75;;
56242;SDS011;42155;53.096;23.226;2022-10-16T02:14:19;27.10;;;15.10;;
56242;SDS011;42155;53.096;23.226;2022-10-16T02:16:21;27.35;;;15.73;;
56242;SDS011;42155;53.096;23.226;2022-10-16T02:18:32;25.83;;;14.68;;
56242;SDS011;42155;53.096;23.226;2022-10-16T02:20:33;27.70;;;14.48;;
56242;SDS011;42155;53.096;23.226;2022-10-16T02:22:40;25.90;;;15.13;;
56242;SDS011;42155;53.096;23.226;2022-10-16T02:24:56;29.93;;;15.57;;
56242;SDS011;42155;53.096;23.226;2022-10-16T02:27:07;23.92;;;14.10;;
56242;SDS011;42155;53.096;23.226;2022-10-16T02:29:14;28.20;;;15.18;;
56242;SDS011;42155;53.096;23.226;2022-10-16T02:31:18;27.13;;;14.50;;
56242;SDS011;42155;53.096;23.226;2022-10-16T02:33:25;32.05;;;15.45;;
56242;SDS011;42155;53.096;23.226;2022-10-16T02:35:27;27.20;;;15.63;;
56242;SDS011;42155;53.096;23.226;2022-10-16T02:37:30;26.17;;;15.57;;
56242;SDS011;42155;53.096;23.226;2022-10-16T02:39:31;26.58;;;14.98;;
56242;SDS011;42155;53.096;23.226;2022-10-16T02:41:33;26.05;;;14.07;;
56242;SDS011;42155;53.096;23.226;2022-10-16T02:43:33;30.70;;;15.02;;
56242;SDS011;42155;53.096;23.226;2022-10-16T02:45:33;29.77;;;14.80;;
56242;SDS011;42155;53.096;23.226;2022-10-16T02:47:34;25.20;;;14.63;;
56242;SDS011;42155;53.096;23.226;2022-10-16T02:49:34;25.67;;;15.15;;
56242;SDS011;42155;53.096;23.226;2022-10-16T02:51:35;24.60;;;14.57;;
56242;SDS011;42155;53.096;23.226;2022-10-16T02:53:35;36.45;;;15.73;;
56242;SDS011;42155;53.096;23.226;2022-10-16T02:55:36;27.73;;;16.17;;
56242;SDS011;42155;53.096;23.226;2022-10-16T02:57:36;29.85;;;15.48;;
56242;SDS011;42155;53.096;23.226;2022-10-16T02:59:36;29.00;;;14.82;;
56242;SDS011;42155;53.096;23.226;2022-10-16T03:01:37;26.38;;;14.50;;
56242;SDS011;42155;53.096;23.226;2022-10-16T03:03:37;30.45;;;15.13;;
56242;SDS011;42155;53.096;23.226;2022-10-16T03:05:38;27.23;;;15.15;;
56242;SDS011;42155;53.096;23.226;2022-10-16T03:07:38;27.98;;;15.10;;
56242;SDS011;42155;53.096;23.226;2022-10-16T03:09:40;28.20;;;15.90;;
56242;SDS011;42155;53.096;23.226;2022-10-16T03:11:40;31.17;;;15.75;;
56242;SDS011;42155;53.096;23.226;2022-10-16T03:13:41;26.45;;;14.90;;
56242;SDS011;42155;53.096;23.226;2022-10-16T03:15:41;28.00;;;15.35;;
56242;SDS011;42155;53.096;23.226;2022-10-16T03:17:42;27.45;;;14.98;;
56242;SDS011;42155;53.096;23.226;2022-10-16T03:19:42;30.05;;;15.85;;
56242;SDS011;42155;53.096;23.226;2022-10-16T03:21:43;31.77;;;16.90;;
56242;SDS011;42155;53.096;23.226;2022-10-16T03:25:45;37.17;;;22.05;;
56242;SDS011;42155;53.096;23.226;2022-10-16T03:27:46;53.65;;;29.38;;
56242;SDS011;42155;53.096;23.226;2022-10-16T03:29:46;39.80;;;22.38;;
56242;SDS011;42155;53.096;23.226;2022-10-16T03:31:46;38.60;;;21.92;;
56242;SDS011;42155;53.096;23.226;2022-10-16T03:33:47;27.65;;;16.10;;
56242;SDS011;42155;53.096;23.226;2022-10-16T03:35:53;30.75;;;17.15;;
56242;SDS011;42155;53.096;23.226;2022-10-16T03:37:54;30.65;;;15.90;;
56242;SDS011;42155;53.096;23.226;2022-10-16T03:39:54;29.90;;;16.17;;
56242;SDS011;42155;53.096;23.226;2022-10-16T03:41:54;29.40;;;16.02;;
56242;SDS011;42155;53.096;23.226;2022-10-16T03:43:55;28.38;;;15.98;;
56242;SDS011;42155;53.096;23.226;2022-10-16T03:45:55;29.98;;;15.52;;
56242;SDS011;42155;53.096;23.226;2022-10-16T03:47:55;28.92;;;16.08;;
56242;SDS011;42155;53.096;23.226;2022-10-16T03:49:56;29.40;;;16.83;;
56242;SDS011;42155;53.096;23.226;2022-10-16T03:51:56;34.53;;;18.52;;
56242;SDS011;42155;53.096;23.226;2022-10-16T03:53:56;31.55;;;17.83;;
56242;SDS011;42155;53.096;23.226;2022-10-16T03:55:57;31.70;;;17.63;;
56242;SDS011;42155;53.096;23.226;2022-10-16T03:57:57;36.85;;;16.05;;
56242;SDS011;42155;53.096;23.226;2022-10-16T03:59:57;27.08;;;15.65;;
56242;SDS011;42155;53.096;23.226;2022-10-16T04:01:58;28.10;;;15.68;;
56242;SDS011;42155;53.096;23.226;2022-10-16T04:03:58;29.75;;;15.45;;
56242;SDS011;42155;53.096;23.226;2022-10-16T04:05:58;27.35;;;15.52;;
56242;SDS011;42155;53.096;23.226;2022-10-16T04:07:59;30.10;;;16.40;;
56242;SDS011;42155;53.096;23.226;2022-10-16T04:09:59;24.95;;;13.93;;
56242;SDS011;42155;53.096;23.226;2022-10-16T04:11:59;28.77;;;16.20;;
56242;SDS011;42155;53.096;23.226;2022-10-16T04:14:00;30.45;;;15.70;;
56242;SDS011;42155;53.096;23.226;2022-10-16T04:16:00;27.05;;;13.32;;
56242;SDS011;42155;53.096;23.226;2022-10-16T04:18:00;23.58;;;14.27;;
56242;SDS011;42155;53.096;23.226;2022-10-16T04:20:01;26.02;;;14.30;;
56242;SDS011;42155;53.096;23.226;2022-10-16T04:22:02;29.92;;;15.05;;
56242;SDS011;42155;53.096;23.226;2022-10-16T04:24:02;27.63;;;16.25;;
56242;SDS011;42155;53.096;23.226;2022-10-16T04:26:03;28.58;;;15.32;;
56242;SDS011;42155;53.096;23.226;2022-10-16T04:28:03;29.98;;;16.25;;
56242;SDS011;42155;53.096;23.226;2022-10-16T04:30:04;27.92;;;15.23;;
56242;SDS011;42155;53.096;23.226;2022-10-16T04:32:05;23.60;;;13.73;;
56242;SDS011;42155;53.096;23.226;2022-10-16T04:34:05;24.35;;;15.18;;
56242;SDS011;42155;53.096;23.226;2022-10-16T04:36:05;26.35;;;14.52;;
56242;SDS011;42155;53.096;23.226;2022-10-16T04:38:06;34.67;;;19.27;;
56242;SDS011;42155;53.096;23.226;2022-10-16T04:40:06;36.92;;;19.33;;
56242;SDS011;42155;53.096;23.226;2022-10-16T04:42:07;30.27;;;17.15;;
56242;SDS011;42155;53.096;23.226;2022-10-16T04:44:07;46.25;;;21.50;;
56242;SDS011;42155;53.096;23.226;2022-10-16T04:46:08;32.28;;;16.70;;
56242;SDS011;42155;53.096;23.226;2022-10-16T04:48:08;32.58;;;18.10;;
56242;SDS011;42155;53.096;23.226;2022-10-16T04:50:08;29.83;;;15.77;;
56242;SDS011;42155;53.096;23.226;2022-10-16T04:52:09;25.88;;;14.18;;
56242;SDS011;42155;53.096;23.226;2022-10-16T04:54:09;26.08;;;14.43;;
56242;SDS011;42155;53.096;23.226;2022-10-16T04:56:10;29.95;;;15.57;;
56242;SDS011;42155;53.096;23.226;2022-10-16T04:58:10;30.77;;;15.95;;
56242;SDS011;42155;53.096;23.226;2022-10-16T05:00:10;33.15;;;16.67;;
56242;SDS011;42155;53.096;23.226;2022-10-16T05:02:11;34.03;;;17.33;;
56242;SDS011;42155;53.096;23.226;2022-10-16T05:04:12;27.55;;;15.43;;
56242;SDS011;42155;53.096;23.226;2022-10-16T05:06:12;24.42;;;13.45;;
56242;SDS011;42155;53.096;23.226;2022-10-16T05:08:13;28.25;;;14.68;;
56242;SDS011;42155;53.096;23.226;2022-10-16T05:10:14;24.83;;;14.68;;
56242;SDS011;42155;53.096;23.226;2022-10-16T05:12:15;26.90;;;14.85;;
56242;SDS011;42155;53.096;23.226;2022-10-16T05:14:16;25.77;;;15.00;;
56242;SDS011;42155;53.096;23.226;2022-10-16T05:16:17;27.92;;;16.20;;
56242;SDS011;42155;53.096;23.226;2022-10-16T05:18:17;25.90;;;14.93;;
56242;SDS011;42155;53.096;23.226;2022-10-16T05:20:17;26.00;;;15.25;;
56242;SDS011;42155;53.096;23.226;2022-10-16T05:22:18;25.88;;;15.07;;
56242;SDS011;42155;53.096;23.226;2022-10-16T05:24:18;25.15;;;14.68;;
56242;SDS011;42155;53.096;23.226;2022-10-16T05:26:19;26.42;;;15.25;;
56242;SDS011;42155;53.096;23.226;2022-10-16T05:28:19;25.52;;;15.15;;
56242;SDS011;42155;53.096;23.226;2022-10-16T05:30:20;22.10;;;14.55;;
56242;SDS011;42155;53.096;23.226;2022-10-16T05:32:20;27.83;;;15.07;;
56242;SDS011;42155;53.096;23.226;2022-10-16T05:34:21;26.25;;;14.25;;
56242;SDS011;42155;53.096;23.226;2022-10-16T05:36:21;26.83;;;15.00;;
56242;SDS011;42155;53.096;23.226;2022-10-16T05:38:22;27.75;;;15.05;;
56242;SDS011;42155;53.096;23.226;2022-10-16T05:40:22;27.77;;;15.23;;
56242;SDS011;42155;53.096;23.226;2022-10-16T05:42:23;25.55;;;15.65;;
56242;SDS011;42155;53.096;23.226;2022-10-16T05:44:23;25.63;;;14.80;;
56242;SDS011;42155;53.096;23.226;2022-10-16T05:46:24;22.75;;;14.23;;
56242;SDS011;42155;53.096;23.226;2022-10-16T05:48:24;25.05;;;15.18;;
56242;SDS011;42155;53.096;23.226;2022-10-16T05:50:25;27.00;;;13.13;;
56242;SDS011;42155;53.096;23.226;2022-10-16T05:52:26;29.95;;;16.00;;
56242;SDS011;42155;53.096;23.226;2022-10-16T05:54:27;25.65;;;14.27;;
56242;SDS011;42155;53.096;23.226;2022-10-16T05:56:27;30.65;;;18.23;;
56242;SDS011;42155;53.096;23.226;2022-10-16T05:58:29;30.23;;;16.38;;
56242;SDS011;42155;53.096;23.226;2022-10-16T06:00:31;39.45;;;21.70;;
56242;SDS011;42155;53.096;23.226;2022-10-16T06:02:31;30.55;;;17.25;;
56242;SDS011;42155;53.096;23.226;2022-10-16T06:04:32;27.00;;;15.50;;
56242;SDS011;42155;53.096;23.226;2022-10-16T06:06:32;30.67;;;15.93;;
56242;SDS011;42155;53.096;23.226;2022-10-16T06:08:33;30.60;;;15.40;;
56242;SDS011;42155;53.096;23.226;2022-10-16T06:10:33;27.63;;;13.90;;
56242;SDS011;42155;53.096;23.226;2022-10-16T06:12:34;26.88;;;14.48;;
56242;SDS011;42155;53.096;23.226;2022-10-16T06:14:34;32.70;;;14.40;;
56242;SDS011;42155;53.096;23.226;2022-10-16T06:16:35;24.90;;;13.25;;
56242;SDS011;42155;53.096;23.226;2022-10-16T06:18:36;24.20;;;13.35;;
56242;SDS011;42155;53.096;23.226;2022-10-16T06:20:36;29.05;;;15.23;;
56242;SDS011;42155;53.096;23.226;2022-10-16T06:22:37;25.52;;;13.63;;
56242;SDS011;42155;53.096;23.226;2022-10-16T06:24:37;22.02;;;13.00;;
56242;SDS011;42155;53.096;23.226;2022-10-16T06:26:38;26.38;;;14.85;;
56242;SDS011;42155;53.096;23.226;2022-10-16T06:28:38;20.92;;;13.10;;
56242;SDS011;42155;53.096;23.226;2022-10-16T06:30:40;22.35;;;13.70;;
56242;SDS011;42155;53.096;23.226;2022-10-16T06:32:40;24.25;;;13.38;;
56242;SDS011;42155;53.096;23.226;2022-10-16T06:34:41;23.70;;;13.05;;
56242;SDS011;42155;53.096;23.226;2022-10-16T06:36:41;21.00;;;12.52;;
56242;SDS011;42155;53.096;23.226;2022-10-16T06:38:42;22.90;;;12.65;;
56242;SDS011;42155;53.096;23.226;2022-10-16T06:40:43;21.95;;;13.48;;
56242;SDS011;42155;53.096;23.226;2022-10-16T06:42:43;22.70;;;13.43;;
56242;SDS011;42155;53.096;23.226;2022-10-16T06:44:44;23.05;;;12.93;;
56242;SDS011;42155;53.096;23.226;2022-10-16T06:46:44;22.10;;;13.32;;
56242;SDS011;42155;53.096;23.226;2022-10-16T06:48:45;21.30;;;13.00;;
56242;SDS011;42155;53.096;23.226;2022-10-16T06:53:16;23.15;;;13.27;;
56242;SDS011;42155;53.096;23.226;2022-10-16T06:55:16;26.60;;;14.00;;
56242;SDS011;42155;53.096;23.226;2022-10-16T06:57:17;22.73;;;13.57;;
56242;SDS011;42155;53.096;23.226;2022-10-16T06:59:18;21.67;;;13.63;;
56242;SDS011;42155;53.096;23.226;2022-10-16T07:01:19;27.15;;;14.98;;
56242;SDS011;42155;53.096;23.226;2022-10-16T07:03:21;25.15;;;14.30;;
56242;SDS011;42155;53.096;23.226;2022-10-16T07:05:22;22.48;;;13.98;;
56242;SDS011;42155;53.096;23.226;2022-10-16T07:07:22;26.45;;;13.82;;
56242;SDS011;42155;53.096;23.226;2022-10-16T07:09:23;25.00;;;13.93;;
56242;SDS011;42155;53.096;23.226;2022-10-16T07:11:23;24.15;;;13.75;;
56242;SDS011;42155;53.096;23.226;2022-10-16T07:13:24;22.80;;;13.57;;
56242;SDS011;42155;53.096;23.226;2022-10-16T07:15:25;28.08;;;14.07;;
56242;SDS011;42155;53.096;23.226;2022-10-16T07:17:26;29.35;;;15.18;;
56242;SDS011;42155;53.096;23.226;2022-10-16T07:19:26;24.55;;;13.73;;
56242;SDS011;42155;53.096;23.226;2022-10-16T07:21:28;24.95;;;14.88;;
56242;SDS011;42155;53.096;23.226;2022-10-16T07:23:30;26.10;;;14.82;;
56242;SDS011;42155;53.096;23.226;2022-10-16T07:25:30;26.35;;;14.07;;
56242;SDS011;42155;53.096;23.226;2022-10-16T07:27:30;24.48;;;13.98;;
56242;SDS011;42155;53.096;23.226;2022-10-16T07:29:31;22.10;;;13.98;;
56242;SDS011;42155;53.096;23.226;2022-10-16T07:31:31;28.98;;;14.88;;
56242;SDS011;42155;53.096;23.226;2022-10-16T07:33:32;25.75;;;14.65;;
56242;SDS011;42155;53.096;23.226;2022-10-16T07:35:34;25.27;;;14.63;;
56242;SDS011;42155;53.096;23.226;2022-10-16T07:37:34;24.88;;;14.20;;
56242;SDS011;42155;53.096;23.226;2022-10-16T07:39:35;25.02;;;14.48;;
56242;SDS011;42155;53.096;23.226;2022-10-16T07:41:35;27.88;;;15.52;;
56242;SDS011;42155;53.096;23.226;2022-10-16T07:43:36;24.48;;;14.52;;
56242;SDS011;42155;53.096;23.226;2022-10-16T07:45:36;24.35;;;14.52;;
56242;SDS011;42155;53.096;23.226;2022-10-16T07:47:37;26.60;;;15.55;;
56242;SDS011;42155;53.096;23.226;2022-10-16T07:49:37;23.25;;;13.30;;
56242;SDS011;42155;53.096;23.226;2022-10-16T07:51:38;24.42;;;14.85;;
56242;SDS011;42155;53.096;23.226;2022-10-16T07:53:38;24.52;;;15.13;;
56242;SDS011;42155;53.096;23.226;2022-10-16T07:55:38;26.10;;;15.27;;
56242;SDS011;42155;53.096;23.226;2022-10-16T07:57:39;34.03;;;16.00;;
56242;SDS011;42155;53.096;23.226;2022-10-16T07:59:39;25.30;;;14.63;;
56242;SDS011;42155;53.096;23.226;2022-10-16T08:01:40;27.45;;;14.95;;
56242;SDS011;42155;53.096;23.226;2022-10-16T08:03:47;22.65;;;14.75;;
56242;SDS011;42155;53.096;23.226;2022-10-16T08:05:49;29.40;;;16.33;;
56242;SDS011;42155;53.096;23.226;2022-10-16T08:07:50;26.77;;;14.88;;
56242;SDS011;42155;53.096;23.226;2022-10-16T08:09:50;24.98;;;14.27;;
56242;SDS011;42155;53.096;23.226;2022-10-16T08:11:50;24.75;;;14.52;;
56242;SDS011;42155;53.096;23.226;2022-10-16T08:13:51;27.08;;;14.52;;
56242;SDS011;42155;53.096;23.226;2022-10-16T08:15:51;21.80;;;13.35;;
56242;SDS011;42155;53.096;23.226;2022-10-16T08:17:54;23.55;;;14.15;;
56242;SDS011;42155;53.096;23.226;2022-10-16T08:19:58;24.90;;;13.80;;
56242;SDS011;42155;53.096;23.226;2022-10-16T08:21:59;23.60;;;14.27;;
56242;SDS011;42155;53.096;23.226;2022-10-16T08:23:59;24.30;;;13.85;;
56242;SDS011;42155;53.096;23.226;2022-10-16T08:26:06;24.38;;;14.68;;
56242;SDS011;42155;53.096;23.226;2022-10-16T08:28:08;26.83;;;14.07;;
56242;SDS011;42155;53.096;23.226;2022-10-16T08:30:10;21.73;;;13.93;;
56242;SDS011;42155;53.096;23.226;2022-10-16T08:32:11;26.23;;;12.90;;
56242;SDS011;42155;53.096;23.226;2022-10-16T08:34:12;29.65;;;14.13;;
56242;SDS011;42155;53.096;23.226;2022-10-16T08:36:12;21.65;;;13.27;;
56242;SDS011;42155;53.096;23.226;2022-10-16T08:38:14;20.65;;;12.40;;
56242;SDS011;42155;53.096;23.226;2022-10-16T08:44:53;21.40;;;13.30;;
56242;SDS011;42155;53.096;23.226;2022-10-16T08:49:34;26.33;;;12.27;;
56242;SDS011;42155;53.096;23.226;2022-10-16T08:51:36;19.52;;;11.73;;
56242;SDS011;42155;53.096;23.226;2022-10-16T08:53:45;23.10;;;12.75;;
56242;SDS011;42155;53.096;23.226;2022-10-16T08:55:50;22.08;;;13.05;;
56242;SDS011;42155;53.096;23.226;2022-10-16T08:57:52;21.98;;;12.75;;
56242;SDS011;42155;53.096;23.226;2022-10-16T08:59:52;22.70;;;12.68;;
56242;SDS011;42155;53.096;23.226;2022-10-16T09:01:53;21.33;;;12.63;;
56242;SDS011;42155;53.096;23.226;2022-10-16T09:06:00;20.67;;;11.90;;
56242;SDS011;42155;53.096;23.226;2022-10-16T09:12:52;18.33;;;12.30;;
56242;SDS011;42155;53.096;23.226;2022-10-16T09:19:46;19.05;;;12.02;;
56242;SDS011;42155;53.096;23.226;2022-10-16T09:21:53;19.58;;;12.05;;
56242;SDS011;42155;53.096;23.226;2022-10-16T09:23:57;20.38;;;12.23;;
56242;SDS011;42155;53.096;23.226;2022-10-16T09:26:00;19.67;;;11.25;;
56242;SDS011;42155;53.096;23.226;2022-10-16T09:28:02;20.60;;;12.60;;
56242;SDS011;42155;53.096;23.226;2022-10-16T09:30:13;20.13;;;11.90;;
56242;SDS011;42155;53.096;23.226;2022-10-16T09:32:16;18.13;;;11.77;;
56242;SDS011;42155;53.096;23.226;2022-10-16T09:34:34;22.88;;;12.30;;
56242;SDS011;42155;53.096;23.226;2022-10-16T09:36:42;18.65;;;11.65;;
56242;SDS011;42155;53.096;23.226;2022-10-16T09:38:44;19.73;;;11.73;;
56242;SDS011;42155;53.096;23.226;2022-10-16T09:40:45;19.38;;;11.02;;
56242;SDS011;42155;53.096;23.226;2022-10-16T09:42:45;21.20;;;12.02;;
56242;SDS011;42155;53.096;23.226;2022-10-16T09:44:52;16.83;;;11.48;;
56242;SDS011;42155;53.096;23.226;2022-10-16T09:47:03;18.20;;;11.23;;
56242;SDS011;42155;53.096;23.226;2022-10-16T09:49:05;17.48;;;11.18;;
56242;SDS011;42155;53.096;23.226;2022-10-16T09:51:24;22.23;;;11.55;;
56242;SDS011;42155;53.096;23.226;2022-10-16T09:54:30;18.70;;;10.85;;
56242;SDS011;42155;53.096;23.226;2022-10-16T09:56:21;16.48;;;10.98;;
56242;SDS011;42155;53.096;23.226;2022-10-16T10:00:24;20.48;;;10.77;;
56242;SDS011;42155;53.096;23.226;2022-10-16T10:02:33;22.08;;;11.77;;
56242;SDS011;42155;53.096;23.226;2022-10-16T10:04:39;18.83;;;11.45;;
56242;SDS011;42155;53.096;23.226;2022-10-16T10:06:45;20.10;;;10.50;;
56242;SDS011;42155;53.096;23.226;2022-10-16T10:10:55;24.30;;;11.50;;
56242;SDS011;42155;53.096;23.226;2022-10-16T10:12:56;17.98;;;11.20;;
56242;SDS011;42155;53.096;23.226;2022-10-16T10:14:57;17.50;;;11.00;;
56242;SDS011;42155;53.096;23.226;2022-10-16T10:19:21;18.75;;;11.60;;
56242;SDS011;42155;53.096;23.226;2022-10-16T10:21:23;17.98;;;11.27;;
56242;SDS011;42155;53.096;23.226;2022-10-16T10:23:24;18.70;;;11.93;;
56242;SDS011;42155;53.096;23.226;2022-10-16T10:30:23;19.55;;;10.48;;
56242;SDS011;42155;53.096;23.226;2022-10-16T10:32:38;16.63;;;10.38;;
56242;SDS011;42155;53.096;23.226;2022-10-16T10:35:03;19.35;;;11.05;;
56242;SDS011;42155;53.096;23.226;2022-10-16T10:39:40;17.73;;;9.85;;
56242;SDS011;42155;53.096;23.226;2022-10-16T10:42:08;16.35;;;9.75;;
56242;SDS011;42155;53.096;23.226;2022-10-16T10:50:53;16.35;;;10.40;;
56242;SDS011;42155;53.096;23.226;2022-10-16T11:06:55;20.75;;;10.10;;
56242;SDS011;42155;53.096;23.226;2022-10-16T11:09:16;17.05;;;9.52;;
56242;SDS011;42155;53.096;23.226;2022-10-16T11:11:22;13.68;;;9.30;;
56242;SDS011;42155;53.096;23.226;2022-10-16T11:13:28;14.38;;;9.70;;
56242;SDS011;42155;53.096;23.226;2022-10-16T11:15:35;17.35;;;9.95;;
56242;SDS011;42155;53.096;23.226;2022-10-16T11:17:42;12.75;;;8.77;;
56242;SDS011;42155;53.096;23.226;2022-10-16T11:21:59;16.30;;;10.32;;
56242;SDS011;42155;53.096;23.226;2022-10-16T11:24:06;14.93;;;9.60;;
56242;SDS011;42155;53.096;23.226;2022-10-16T11:26:23;16.05;;;9.00;;
56242;SDS011;42155;53.096;23.226;2022-10-16T11:28:37;20.67;;;11.20;;
56242;SDS011;42155;53.096;23.226;2022-10-16T11:30:45;20.05;;;10.93;;
56242;SDS011;42155;53.096;23.226;2022-10-16T11:33:08;19.75;;;10.52;;
56242;SDS011;42155;53.096;23.226;2022-10-16T11:35:32;15.80;;;9.25;;
56242;SDS011;42155;53.096;23.226;2022-10-16T11:37:42;21.30;;;10.35;;
56242;SDS011;42155;53.096;23.226;2022-10-16T11:39:46;17.33;;;10.35;;
56242;SDS011;42155;53.096;23.226;2022-10-16T11:46:21;17.52;;;10.70;;
56242;SDS011;42155;53.096;23.226;2022-10-16T11:48:39;18.52;;;10.00;;
56242;SDS011;42155;53.096;23.226;2022-10-16T11:50:48;16.73;;;10.25;;
56242;SDS011;42155;53.096;23.226;2022-10-16T11:57:20;13.48;;;9.15;;
56242;SDS011;42155;53.096;23.226;2022-10-16T11:59:45;13.63;;;9.38;;
56242;SDS011;42155;53.096;23.226;2022-10-16T12:01:52;14.55;;;9.63;;
56242;SDS011;42155;53.096;23.226;2022-10-16T12:04:05;16.02;;;9.65;;
56242;SDS011;42155;53.096;23.226;2022-10-16T12:06:51;14.68;;;9.55;;
56242;SDS011;42155;53.096;23.226;2022-10-16T12:08:49;17.33;;;9.73;;
56242;SDS011;42155;53.096;23.226;2022-10-16T12:10:50;17.17;;;10.15;;
56242;SDS011;42155;53.096;23.226;2022-10-16T12:12:50;14.77;;;9.05;;
56242;SDS011;42155;53.096;23.226;2022-10-16T12:15:01;11.93;;;8.50;;
56242;SDS011;42155;53.096;23.226;2022-10-16T12:19:21;17.00;;;9.90;;
56242;SDS011;42155;53.096;23.226;2022-10-16T12:21:22;15.93;;;9.13;;
56242;SDS011;42155;53.096;23.226;2022-10-16T12:23:30;14.60;;;9.25;;
56242;SDS011;42155;53.096;23.226;2022-10-16T12:25:33;17.33;;;9.82;;
56242;SDS011;42155;53.096;23.226;2022-10-16T12:27:36;14.05;;;9.15;;
56242;SDS011;42155;53.096;23.226;2022-10-16T12:29:37;19.25;;;10.07;;
56242;SDS011;42155;53.096;23.226;2022-10-16T12:31:46;15.25;;;9.60;;
56242;SDS011;42155;53.096;23.226;2022-10-16T12:33:58;15.25;;;9.60;;
56242;SDS011;42155;53.096;23.226;2022-10-16T12:36:03;19.70;;;10.10;;
56242;SDS011;42155;53.096;23.226;2022-10-16T12:38:18;19.05;;;10.18;;
56242;SDS011;42155;53.096;23.226;2022-10-16T12:40:31;16.73;;;9.70;;
56242;SDS011;42155;53.096;23.226;2022-10-16T12:42:34;16.77;;;9.20;;
56242;SDS011;42155;53.096;23.226;2022-10-16T12:44:35;16.08;;;9.57;;
56242;SDS011;42155;53.096;23.226;2022-10-16T12:46:39;17.65;;;9.15;;
56242;SDS011;42155;53.096;23.226;2022-10-16T12:48:41;15.15;;;8.93;;
56242;SDS011;42155;53.096;23.226;2022-10-16T12:50:43;15.20;;;9.40;;
56242;SDS011;42155;53.096;23.226;2022-10-16T12:52:43;16.48;;;9.57;;
56242;SDS011;42155;53.096;23.226;2022-10-16T12:54:44;13.70;;;9.23;;
56242;SDS011;42155;53.096;23.226;2022-10-16T12:59:06;15.13;;;8.93;;
56242;SDS011;42155;53.096;23.226;2022-10-16T13:08:26;12.07;;;8.07;;
56242;SDS011;42155;53.096;23.226;2022-10-16T13:18:12;12.63;;;7.85;;
56242;SDS011;42155;53.096;23.226;2022-10-16T13:29:59;12.13;;;7.68;;
56242;SDS011;42155;53.096;23.226;2022-10-16T13:32:07;13.70;;;7.82;;
56242;SDS011;42155;53.096;23.226;2022-10-16T13:34:12;13.35;;;8.20;;
56242;SDS011;42155;53.096;23.226;2022-10-16T13:36:22;12.60;;;8.05;;
56242;SDS011;42155;53.096;23.226;2022-10-16T13:38:28;14.50;;;8.60;;
56242;SDS011;42155;53.096;23.226;2022-10-16T13:40:33;13.57;;;8.13;;
56242;SDS011;42155;53.096;23.226;2022-10-16T13:42:34;13.63;;;8.50;;